Time;durP1;ratioP1;P1;durP2;ratioP2;P2;SDS_P1;SDS_P2;PMS_P1;PMS_P2;Temp;Humidity;BMP_temperature;BMP_pressure;BME280_temperature;BME280_humidity;BME280_pressure;Samples;Min_cycle;Max_cycle;Signal;HPM_P1;HPM_P2
2021/05/14 00:01:15;;;;;;;7.03;1.33;;;11.90;80.90;;;;;;5116809;28;20429;-84
2021/05/14 00:03:40;;;;;;;3.10;1.10;;;12.00;81.00;;;;;;5116606;28;20171;-84
2021/05/14 00:06:06;;;;;;;1.10;0.90;;;12.00;81.20;;;;;;5118355;28;20417;-83
2021/05/14 00:08:32;;;;;;;1.23;1.10;;;12.10;79.50;;;;;;5117548;28;20170;-84
2021/05/14 00:10:58;;;;;;;3.50;1.60;;;12.10;80.60;;;;;;5116929;28;20451;-84
2021/05/14 00:13:24;;;;;;;9.00;1.53;;;12.10;81.00;;;;;;5116611;28;20405;-84
2021/05/14 00:15:50;;;;;;;1.70;1.10;;;12.10;81.40;;;;;;5117815;28;20472;-84
2021/05/14 00:18:16;;;;;;;3.05;1.38;;;12.10;81.40;;;;;;5117066;28;20436;-84
2021/05/14 00:20:42;;;;;;;2.63;0.93;;;12.20;81.60;;;;;;5116883;28;20222;-84
2021/05/14 00:23:08;;;;;;;2.75;1.30;;;12.20;82.80;;;;;;5117193;28;20818;-84
2021/05/14 00:25:34;;;;;;;2.00;1.25;;;12.10;83.00;;;;;;5117113;28;20171;-84
2021/05/14 00:28:00;;;;;;;2.53;1.67;;;12.10;83.00;;;;;;5117750;28;20183;-84
2021/05/14 00:33:00;;;;;;;1.73;1.33;;;12.00;83.00;;;;;;5072673;28;20266;-85
2021/05/14 00:35:26;;;;;;;1.73;1.40;;;12.00;83.70;;;;;;5057558;28;20208;-85
2021/05/14 00:37:52;;;;;;;6.47;1.30;;;12.10;83.50;;;;;;5058355;28;20165;-84
2021/05/14 00:40:18;;;;;;;1.70;1.20;;;12.00;83.30;;;;;;5058601;28;20210;-84
2021/05/14 00:42:44;;;;;;;1.70;1.20;;;12.00;84.10;;;;;;5057535;28;20410;-85
2021/05/14 00:45:11;;;;;;;1.98;0.98;;;11.90;84.20;;;;;;5057806;28;20168;-85
2021/05/14 00:47:37;;;;;;;1.50;1.23;;;11.90;84.10;;;;;;5058129;28;20689;-86
2021/05/14 00:50:04;;;;;;;1.77;1.40;;;11.90;84.40;;;;;;5058342;28;20250;-86
2021/05/14 00:52:30;;;;;;;4.50;1.17;;;11.80;84.40;;;;;;5058601;28;20176;-86
2021/05/14 00:54:57;;;;;;;3.47;1.20;;;11.80;84.40;;;;;;5058450;28;20310;-86
2021/05/14 00:57:23;;;;;;;2.05;1.00;;;11.80;84.10;;;;;;5058385;28;20180;-86
2021/05/14 00:59:50;;;;;;;6.07;1.35;;;11.80;83.90;;;;;;5058469;28;20193;-86
2021/05/14 01:02:17;;;;;;;2.53;1.38;;;11.90;84.20;;;;;;5057391;28;20172;-86
2021/05/14 01:04:44;;;;;;;1.27;1.05;;;11.90;84.40;;;;;;5058187;28;20176;-84
2021/05/14 01:07:11;;;;;;;1.70;1.20;;;11.90;83.80;;;;;;5057859;28;20203;-84
2021/05/14 01:09:40;;;;;;;2.30;1.27;;;11.90;83.70;;;;;;5057309;28;20172;-85
2021/05/14 01:12:08;;;;;;;1.02;1.00;;;11.90;83.80;;;;;;5057343;28;20175;-85
2021/05/14 01:14:33;;;;;;;5.65;1.42;;;11.90;83.90;;;;;;5058058;28;20203;-85
2021/05/14 01:16:59;;;;;;;6.88;1.70;;;11.90;83.90;;;;;;5057976;28;20211;-85
2021/05/14 01:19:25;;;;;;;3.33;1.30;;;11.90;84.20;;;;;;5057291;28;20225;-85
2021/05/14 01:21:51;;;;;;;2.63;1.20;;;11.90;84.90;;;;;;5057034;28;20411;-85
2021/05/14 01:24:17;;;;;;;1.80;1.47;;;11.90;85.30;;;;;;5057462;28;20407;-85
2021/05/14 01:26:43;;;;;;;3.38;1.17;;;11.90;85.20;;;;;;5057247;28;20415;-85
2021/05/14 01:29:11;;;;;;;1.55;1.30;;;11.90;85.20;;;;;;5057941;28;20255;-85
2021/05/14 01:31:37;;;;;;;4.35;1.70;;;11.90;84.60;;;;;;5056841;28;20771;-85
2021/05/14 01:34:07;;;;;;;1.60;1.15;;;11.80;84.80;;;;;;5057495;28;20176;-85
2021/05/14 01:36:34;;;;;;;1.25;1.10;;;11.70;84.60;;;;;;5058002;28;20200;-85
2021/05/14 01:39:11;;;;;;;2.65;1.13;;;11.70;84.90;;;;;;5057806;28;20180;-85
2021/05/14 01:41:38;;;;;;;1.08;1.00;;;11.60;85.20;;;;;;5057375;28;20188;-84
2021/05/14 01:44:05;;;;;;;1.10;1.00;;;11.70;85.20;;;;;;5057146;28;20169;-85
2021/05/14 01:46:31;;;;;;;2.67;1.02;;;11.60;85.80;;;;;;5057538;28;20172;-84
2021/05/14 01:48:57;;;;;;;7.43;1.70;;;11.70;85.80;;;;;;5057309;28;20544;-85
2021/05/14 01:51:24;;;;;;;3.15;1.40;;;11.70;86.00;;;;;;5057176;28;20227;-85
2021/05/14 01:53:53;;;;;;;2.28;1.65;;;11.60;86.30;;;;;;5056279;28;20176;-84
2021/05/14 01:56:20;;;;;;;1.88;1.02;;;11.70;86.60;;;;;;5056730;28;20199;-85
2021/05/14 01:58:47;;;;;;;1.77;1.30;;;11.70;86.40;;;;;;5057561;28;20168;-84
2021/05/14 02:01:13;;;;;;;1.30;1.20;;;11.70;86.90;;;;;;5056900;28;20211;-85
2021/05/14 02:03:39;;;;;;;1.13;1.10;;;11.70;86.90;;;;;;5056698;28;20578;-85
2021/05/14 02:06:05;;;;;;;1.10;1.00;;;11.70;86.70;;;;;;5056366;28;20176;-85
2021/05/14 02:08:31;;;;;;;0.98;0.88;;;11.70;86.70;;;;;;5056471;28;20169;-85
2021/05/14 02:10:58;;;;;;;3.85;1.08;;;11.70;86.30;;;;;;5056370;28;20568;-85
2021/05/14 02:13:24;;;;;;;2.70;1.05;;;11.60;86.00;;;;;;5056793;28;20198;-85
2021/05/14 02:15:50;;;;;;;1.42;1.10;;;11.60;85.60;;;;;;5056232;28;20287;-85
2021/05/14 02:18:16;;;;;;;1.23;1.10;;;11.60;86.20;;;;;;5055473;28;20207;-85
2021/05/14 02:20:42;;;;;;;6.43;1.60;;;11.50;86.30;;;;;;5055795;28;20192;-86
2021/05/14 02:23:08;;;;;;;2.00;1.20;;;11.50;86.30;;;;;;5055833;28;20410;-85
2021/05/14 02:25:34;;;;;;;1.57;1.30;;;11.40;86.60;;;;;;5055646;28;20168;-85
2021/05/14 02:27:59;;;;;;;3.20;1.20;;;11.30;86.60;;;;;;5056149;28;20407;-85
2021/05/14 02:30:25;;;;;;;3.00;1.20;;;11.30;86.70;;;;;;5055927;28;20203;-84
2021/05/14 02:32:51;;;;;;;2.67;1.70;;;11.30;87.10;;;;;;5056331;28;20938;-84
2021/05/14 02:35:17;;;;;;;2.43;1.40;;;11.20;87.10;;;;;;5055973;28;20454;-84
2021/05/14 02:37:43;;;;;;;2.00;1.37;;;11.20;87.70;;;;;;5056164;28;20172;-85
2021/05/14 02:40:10;;;;;;;11.15;1.70;;;11.10;88.00;;;;;;5056017;28;20497;-84
2021/05/14 02:42:35;;;;;;;7.00;1.63;;;11.10;88.40;;;;;;5056000;28;20546;-85
2021/05/14 02:45:03;;;;;;;3.20;1.33;;;11.00;88.70;;;;;;5055988;28;20263;-84
2021/05/14 02:47:28;;;;;;;1.40;1.20;;;11.00;88.70;;;;;;5055784;28;20446;-85
2021/05/14 02:49:54;;;;;;;3.83;1.80;;;10.90;88.70;;;;;;5055292;28;20189;-85
2021/05/14 02:52:21;;;;;;;1.77;1.37;;;10.80;89.10;;;;;;5055068;28;20172;-85
2021/05/14 02:54:46;;;;;;;4.35;2.00;;;10.80;89.60;;;;;;5055122;28;20557;-86
2021/05/14 02:57:12;;;;;;;4.10;2.00;;;10.80;89.40;;;;;;5054813;28;20870;-85
2021/05/14 02:59:38;;;;;;;9.90;2.17;;;10.70;90.10;;;;;;5055100;28;20664;-85
2021/05/14 03:02:04;;;;;;;8.57;2.27;;;10.70;90.10;;;;;;5055130;28;20655;-85
2021/05/14 03:04:29;;;;;;;3.33;1.40;;;10.80;90.10;;;;;;5055932;28;20770;-85
2021/05/14 03:06:55;;;;;;;3.87;2.10;;;10.70;89.90;;;;;;5058387;28;20433;-85
2021/05/14 03:09:21;;;;;;;5.73;2.23;;;10.70;90.10;;;;;;5058960;28;20442;-84
2021/05/14 03:11:47;;;;;;;2.90;2.03;;;10.70;89.90;;;;;;5058833;28;20181;-85
2021/05/14 03:14:12;;;;;;;3.23;2.00;;;10.70;89.90;;;;;;5058845;28;20173;-85
2021/05/14 03:16:38;;;;;;;2.87;2.17;;;10.80;89.60;;;;;;5058410;28;20458;-85
2021/05/14 03:19:04;;;;;;;9.57;2.00;;;10.80;89.60;;;;;;5058410;28;20202;-85
2021/05/14 03:21:31;;;;;;;3.38;1.70;;;10.80;89.40;;;;;;5057864;28;20821;-85
2021/05/14 03:23:58;;;;;;;3.88;2.10;;;10.80;89.50;;;;;;5057782;28;20235;-85
2021/05/14 03:26:25;;;;;;;4.70;1.52;;;10.80;89.60;;;;;;5058166;28;20173;-85
2021/05/14 03:28:51;;;;;;;2.85;1.70;;;10.90;89.40;;;;;;5058385;28;20223;-85
2021/05/14 03:31:17;;;;;;;3.92;1.60;;;10.90;88.90;;;;;;5058454;28;20217;-85
2021/05/14 03:33:43;;;;;;;6.43;1.70;;;10.90;88.70;;;;;;5059133;28;20176;-84
2021/05/14 03:36:22;;;;;;;5.73;1.50;;;10.90;88.90;;;;;;5059468;28;20329;-84
2021/05/14 03:38:49;;;;;;;3.63;1.60;;;10.90;89.40;;;;;;5058294;28;20511;-84
2021/05/14 03:41:31;;;;;;;2.72;1.63;;;10.80;88.90;;;;;;5058466;28;20668;-84
2021/05/14 03:43:58;;;;;;;2.10;1.55;;;10.80;89.40;;;;;;5058686;28;20195;-85
2021/05/14 03:46:30;;;;;;;2.35;1.30;;;10.70;89.60;;;;;;5058399;28;20172;-85
2021/05/14 03:48:56;;;;;;;2.58;1.40;;;10.70;89.90;;;;;;5058126;28;20558;-84
2021/05/14 03:51:21;;;;;;;3.80;1.85;;;10.70;90.10;;;;;;5057595;28;20200;-85
2021/05/14 03:53:47;;;;;;;4.77;1.37;;;10.70;90.40;;;;;;5058293;28;20177;-84
2021/05/14 03:56:13;;;;;;;6.40;1.60;;;10.70;89.90;;;;;;5058364;28;20803;-85
2021/05/14 03:58:39;;;;;;;1.63;1.30;;;10.60;90.10;;;;;;5058787;28;20762;-85
2021/05/14 04:01:05;;;;;;;2.87;1.30;;;10.70;89.90;;;;;;5058137;28;20435;-85
2021/05/14 04:03:31;;;;;;;2.00;1.42;;;10.70;89.40;;;;;;5058984;28;20403;-84
2021/05/14 04:05:57;;;;;;;3.93;1.70;;;10.70;89.50;;;;;;5058131;28;20267;-85
2021/05/14 04:08:22;;;;;;;5.30;1.73;;;10.60;89.60;;;;;;5058644;28;20442;-84
2021/05/14 04:11:02;;;;;;;3.20;1.80;;;10.60;89.80;;;;;;5058178;28;20842;-85
2021/05/14 04:16:17;;;;;;;2.58;1.60;;;10.50;89.10;;;;;;5055697;28;20230;-85
2021/05/14 04:18:43;;;;;;;1.45;1.13;;;10.50;89.20;;;;;;5057578;28;20194;-85
2021/05/14 04:21:09;;;;;;;6.25;1.52;;;10.40;89.20;;;;;;5057359;28;20625;-85
2021/05/14 04:23:35;;;;;;;1.70;1.33;;;10.40;89.40;;;;;;5057331;28;20181;-85
2021/05/14 04:26:01;;;;;;;6.40;2.10;;;10.50;89.90;;;;;;5057080;28;20411;-85
2021/05/14 04:28:27;;;;;;;8.15;2.03;;;10.50;89.80;;;;;;5057078;28;20204;-85
2021/05/14 04:30:53;;;;;;;1.70;1.43;;;10.40;89.50;;;;;;5056854;28;20297;-86
2021/05/14 04:33:18;;;;;;;2.90;1.53;;;10.50;89.50;;;;;;5056953;28;20180;-85
2021/05/14 04:35:44;;;;;;;2.53;1.40;;;10.50;89.10;;;;;;5056426;28;20451;-86
2021/05/14 04:38:10;;;;;;;4.70;1.80;;;10.50;89.80;;;;;;5056895;28;20552;-86
2021/05/14 04:40:36;;;;;;;7.73;1.87;;;10.50;89.90;;;;;;5056712;28;20195;-85
2021/05/14 04:43:03;;;;;;;4.20;1.80;;;10.50;89.90;;;;;;5057419;28;20938;-85
2021/05/14 04:45:30;;;;;;;3.80;1.83;;;10.50;89.90;;;;;;5057624;28;20172;-85
2021/05/14 04:47:57;;;;;;;2.35;1.70;;;10.50;89.80;;;;;;5075591;28;20168;-85
2021/05/14 04:50:23;;;;;;;4.22;1.60;;;10.50;89.80;;;;;;5057484;28;20788;-85
2021/05/14 04:52:55;;;;;;;5.63;1.90;;;10.50;89.90;;;;;;5056952;28;20524;-86
2021/05/14 04:55:21;;;;;;;2.95;2.00;;;10.50;89.90;;;;;;5056746;28;20161;-86
2021/05/14 04:57:47;;;;;;;3.77;1.90;;;10.60;89.40;;;;;;5056775;28;20237;-85
2021/05/14 05:00:13;;;;;;;2.37;1.83;;;10.60;89.20;;;;;;5057169;28;20427;-86
2021/05/14 05:02:39;;;;;;;8.77;3.70;;;10.60;89.20;;;;;;5056149;28;20164;-85
2021/05/14 05:05:05;;;;;;;2.33;1.50;;;10.60;88.80;;;;;;5056094;28;20535;-86
2021/05/14 05:07:31;;;;;;;3.33;1.95;;;10.70;88.70;;;;;;5056934;28;20446;-85
2021/05/14 05:09:57;;;;;;;4.70;2.77;;;10.70;88.40;;;;;;5056677;28;20723;-85
2021/05/14 05:12:24;;;;;;;9.37;2.30;;;10.80;87.80;;;;;;5056014;28;20445;-84
2021/05/14 05:14:50;;;;;;;2.28;1.90;;;10.80;87.70;;;;;;5057891;28;20414;-85
2021/05/14 05:17:16;;;;;;;2.03;1.60;;;10.80;88.30;;;;;;5056273;28;20700;-86
2021/05/14 05:19:42;;;;;;;2.13;1.60;;;10.90;88.10;;;;;;5056157;28;20195;-86
2021/05/14 05:22:10;;;;;;;3.20;1.80;;;10.90;87.80;;;;;;5056100;28;20411;-89
2021/05/14 05:24:36;;;;;;;5.80;1.70;;;10.90;87.40;;;;;;5056213;28;20192;-88
2021/05/14 05:27:02;;;;;;;2.70;1.40;;;11.00;87.40;;;;;;5056003;28;20241;-88
2021/05/14 05:29:27;;;;;;;2.97;1.60;;;11.10;87.60;;;;;;5056009;28;20180;-87
2021/05/14 05:31:53;;;;;;;2.67;1.50;;;11.10;87.30;;;;;;5055239;28;20785;-87
2021/05/14 05:34:19;;;;;;;6.38;1.38;;;11.20;87.30;;;;;;5056053;28;20264;-87
2021/05/14 05:36:45;;;;;;;3.37;1.50;;;11.30;87.10;;;;;;5056349;28;20204;-87
2021/05/14 05:39:10;;;;;;;3.47;1.60;;;11.30;86.40;;;;;;5056760;28;20492;-89
2021/05/14 05:41:40;;;;;;;5.80;2.17;;;11.40;86.70;;;;;;5056382;28;20474;-84
2021/05/14 05:44:09;;;;;;;2.92;1.52;;;11.40;86.70;;;;;;5055836;28;20258;-85
2021/05/14 05:46:35;;;;;;;2.28;1.50;;;11.50;86.40;;;;;;5073720;28;20200;-85
2021/05/14 05:49:01;;;;;;;4.40;1.83;;;11.60;86.20;;;;;;5056333;28;20179;-86
2021/05/14 05:51:26;;;;;;;3.03;1.70;;;11.70;85.80;;;;;;5055806;28;20469;-85
2021/05/14 05:53:52;;;;;;;2.90;1.60;;;11.80;84.90;;;;;;5056060;28;20449;-85
2021/05/14 05:56:18;;;;;;;5.60;2.37;;;11.90;84.40;;;;;;5055744;28;20446;-85
2021/05/14 05:58:44;;;;;;;4.40;2.03;;;12.00;84.20;;;;;;5056338;28;20612;-85
2021/05/14 06:01:10;;;;;;;2.50;1.80;;;12.10;83.70;;;;;;5055983;28;20483;-84
2021/05/14 06:03:35;;;;;;;4.53;2.53;;;12.30;82.70;;;;;;5055693;28;20279;-84
2021/05/14 06:06:01;;;;;;;6.30;2.40;;;12.30;82.70;;;;;;5055723;28;20653;-84
2021/05/14 06:08:28;;;;;;;17.63;2.43;;;12.40;82.40;;;;;;5055646;28;20221;-84
2021/05/14 06:10:54;;;;;;;5.95;2.25;;;12.50;81.60;;;;;;5055371;28;20488;-84
2021/05/14 06:13:20;;;;;;;4.50;2.17;;;12.50;82.00;;;;;;5055878;28;20172;-84
2021/05/14 06:15:46;;;;;;;5.78;2.40;;;12.60;80.90;;;;;;5055442;28;20451;-85
2021/05/14 06:18:14;;;;;;;2.80;1.85;;;12.60;81.00;;;;;;5056031;28;20168;-85
2021/05/14 06:20:45;;;;;;;12.48;3.08;;;12.70;81.30;;;;;;5055997;28;20214;-85
2021/05/14 06:23:11;;;;;;;8.30;2.72;;;12.80;81.00;;;;;;5056062;28;20626;-85
2021/05/14 06:25:38;;;;;;;5.40;2.30;;;12.90;80.50;;;;;;5056431;28;20188;-85
2021/05/14 06:28:04;;;;;;;15.38;1.98;;;13.00;80.50;;;;;;5055789;28;20176;-85
2021/05/14 06:30:30;;;;;;;6.72;2.00;;;13.10;80.50;;;;;;5055701;28;20287;-85
2021/05/14 06:32:56;;;;;;;2.93;1.53;;;13.20;79.90;;;;;;5055653;28;20220;-83
2021/05/14 06:35:22;;;;;;;4.93;1.57;;;13.30;80.10;;;;;;5055726;28;20442;-83
2021/05/14 06:37:48;;;;;;;2.90;1.80;;;13.40;79.50;;;;;;5055779;28;20418;-82
2021/05/14 06:40:17;;;;;;;3.67;2.17;;;13.50;79.60;;;;;;5057994;28;20672;-83
2021/05/14 06:42:43;;;;;;;7.20;2.10;;;13.60;78.10;;;;;;5059301;28;20406;-83
2021/05/14 06:45:10;;;;;;;6.38;2.33;;;13.70;78.10;;;;;;5059516;28;20168;-82
2021/05/14 06:47:36;;;;;;;11.10;1.90;;;13.80;77.70;;;;;;5059699;28;20641;-83
2021/05/14 06:50:10;;;;;;;4.53;1.90;;;13.90;77.40;;;;;;5059801;28;20184;-83
2021/05/14 06:52:39;;;;;;;2.97;1.70;;;14.00;76.40;;;;;;5061073;28;20173;-83
2021/05/14 06:55:08;;;;;;;1.73;1.48;;;14.10;75.30;;;;;;5059895;28;20172;-85
2021/05/14 06:57:34;;;;;;;4.10;1.65;;;14.20;76.40;;;;;;5059084;28;20676;-85
2021/05/14 07:00:00;;;;;;;3.88;1.50;;;14.30;74.90;;;;;;5059973;28;20712;-85
2021/05/14 07:02:26;;;;;;;2.07;1.50;;;14.40;75.20;;;;;;5058700;28;20176;-85
2021/05/14 07:04:52;;;;;;;5.28;2.55;;;14.60;73.40;;;;;;5059023;28;20445;-85
2021/05/14 07:07:18;;;;;;;2.80;1.58;;;14.70;73.30;;;;;;5059453;28;20564;-85
2021/05/14 07:09:44;;;;;;;6.60;1.70;;;14.80;73.40;;;;;;5059595;28;20288;-85
2021/05/14 07:12:10;;;;;;;3.58;1.52;;;15.00;72.70;;;;;;5059017;28;20417;-85
2021/05/14 07:14:36;;;;;;;2.85;1.40;;;15.10;71.90;;;;;;5059684;28;20177;-86
2021/05/14 07:17:02;;;;;;;2.80;1.50;;;15.30;71.00;;;;;;5059260;28;20199;-84
2021/05/14 07:19:28;;;;;;;2.85;1.50;;;15.40;70.80;;;;;;5059886;28;20805;-85
2021/05/14 07:21:55;;;;;;;3.50;1.80;;;15.60;70.90;;;;;;5059769;28;20175;-85
2021/05/14 07:24:20;;;;;;;3.45;1.70;;;15.70;69.90;;;;;;5059438;28;20407;-85
2021/05/14 07:26:56;;;;;;;4.13;1.37;;;15.80;68.90;;;;;;5063269;28;20198;-83
2021/05/14 07:29:22;;;;;;;2.92;1.30;;;15.90;69.40;;;;;;5059695;28;20473;-83
2021/05/14 07:31:48;;;;;;;2.33;1.20;;;15.90;68.70;;;;;;5058404;28;20188;-84
2021/05/14 07:34:13;;;;;;;5.77;1.33;;;16.00;69.50;;;;;;5059195;28;20168;-84
2021/05/14 07:36:39;;;;;;;1.43;1.23;;;16.00;68.40;;;;;;5058907;28;20565;-83
2021/05/14 07:39:05;;;;;;;1.57;1.40;;;16.10;68.40;;;;;;5059460;28;20263;-84
2021/05/14 07:41:32;;;;;;;1.95;1.20;;;16.10;68.50;;;;;;5058272;28;20276;-85
2021/05/14 07:43:58;;;;;;;1.90;1.10;;;16.20;67.00;;;;;;5058834;28;20173;-86
2021/05/14 07:46:23;;;;;;;3.43;1.20;;;16.40;67.60;;;;;;5059587;28;20172;-84
2021/05/14 07:48:49;;;;;;;4.67;1.13;;;16.50;66.40;;;;;;5059563;28;20505;-85
2021/05/14 07:51:18;;;;;;;3.80;0.90;;;16.60;66.00;;;;;;5058616;28;20435;-84
2021/05/14 07:53:44;;;;;;;4.07;1.05;;;16.70;65.50;;;;;;5059156;28;20176;-85
2021/05/14 07:56:10;;;;;;;1.60;1.10;;;16.60;64.90;;;;;;5057832;28;20196;-85
2021/05/14 07:58:36;;;;;;;2.72;1.20;;;16.70;64.90;;;;;;5058314;28;20780;-85
2021/05/14 08:01:02;;;;;;;1.87;1.23;;;16.70;65.30;;;;;;5058357;28;20185;-85
2021/05/14 08:03:28;;;;;;;2.17;1.10;;;16.70;66.00;;;;;;5057815;28;20533;-84
2021/05/14 08:05:54;;;;;;;1.90;0.90;;;16.90;65.90;;;;;;5058125;28;20418;-84
2021/05/14 08:08:21;;;;;;;4.10;1.00;;;17.00;64.10;;;;;;5058598;28;20403;-84
2021/05/14 08:10:47;;;;;;;1.15;0.90;;;17.00;63.40;;;;;;5057847;28;20473;-84
2021/05/14 08:13:13;;;;;;;2.47;1.08;;;17.00;63.50;;;;;;5058416;28;20180;-84
2021/05/14 08:15:39;;;;;;;2.85;1.35;;;17.00;67.00;;;;;;5058326;28;20192;-84
2021/05/14 08:18:06;;;;;;;1.80;1.00;;;17.00;65.80;;;;;;5058613;28;20172;-83
2021/05/14 08:20:50;;;;;;;3.03;1.05;;;17.00;64.20;;;;;;5059558;28;20834;-84
2021/05/14 08:23:19;;;;;;;3.30;1.23;;;17.00;63.80;;;;;;5043161;28;20164;-83
2021/05/14 08:25:45;;;;;;;3.17;0.90;;;17.10;63.30;;;;;;5058245;28;20188;-85
2021/05/14 08:28:12;;;;;;;9.68;0.93;;;16.90;62.30;;;;;;5057988;28;20628;-85
2021/05/14 08:30:39;;;;;;;3.08;0.85;;;16.80;63.30;;;;;;5057527;28;20193;-85
2021/05/14 08:33:05;;;;;;;1.15;1.10;;;16.80;64.40;;;;;;5057790;28;20226;-85
2021/05/14 08:35:31;;;;;;;9.83;1.00;;;16.80;65.30;;;;;;5057888;28;20640;-86
2021/05/14 08:37:57;;;;;;;2.93;0.90;;;16.90;62.10;;;;;;5057636;28;20453;-84
2021/05/14 08:40:23;;;;;;;0.90;0.80;;;17.20;62.40;;;;;;5057595;28;20867;-85
2021/05/14 08:42:48;;;;;;;1.63;1.10;;;17.60;61.60;;;;;;5057588;28;20179;-85
2021/05/14 08:45:15;;;;;;;0.73;0.60;;;18.10;61.20;;;;;;5057235;28;21077;-85
2021/05/14 08:47:42;;;;;;;1.23;0.73;;;18.20;57.60;;;;;;5057666;28;20415;-86
2021/05/14 08:50:10;;;;;;;3.95;0.93;;;18.10;57.60;;;;;;5057172;28;20193;-86
2021/05/14 08:52:42;;;;;;;0.93;0.70;;;18.00;58.50;;;;;;5057403;28;20300;-85
2021/05/14 08:55:12;;;;;;;3.05;0.90;;;17.90;59.20;;;;;;5057604;28;20164;-86
2021/05/14 08:57:39;;;;;;;1.55;1.48;;;17.70;57.90;;;;;;5057527;28;20196;-86
2021/05/14 09:00:06;;;;;;;6.22;1.00;;;17.70;60.00;;;;;;5056849;28;20196;-86
2021/05/14 09:02:36;;;;;;;1.35;0.90;;;17.70;59.70;;;;;;5056775;28;20524;-86
2021/05/14 09:05:28;;;;;;;1.80;0.85;;;17.70;60.10;;;;;;5057358;28;20172;-85
2021/05/14 09:07:58;;;;;;;2.60;1.33;;;17.90;59.30;;;;;;5057431;28;20173;-86
2021/05/14 09:10:29;;;;;;;0.82;0.70;;;18.00;58.10;;;;;;5056435;28;20188;-86
2021/05/14 09:12:56;;;;;;;3.00;1.00;;;17.90;58.90;;;;;;5057010;28;20161;-86
2021/05/14 09:15:35;;;;;;;1.98;0.77;;;17.90;59.10;;;;;;5056822;28;20688;-86
2021/05/14 09:18:21;;;;;;;1.13;0.70;;;18.00;59.20;;;;;;5058381;28;20739;-86
2021/05/14 09:20:54;;;;;;;2.22;0.77;;;18.10;58.80;;;;;;5056696;28;20216;-86
2021/05/14 09:23:26;;;;;;;2.30;1.00;;;18.30;58.50;;;;;;5058560;28;20164;-86
2021/05/14 09:26:01;;;;;;;0.90;0.77;;;18.40;57.10;;;;;;5056882;28;20577;-87
2021/05/14 09:28:30;;;;;;;2.60;1.00;;;18.40;57.90;;;;;;5057041;28;20211;-87
2021/05/14 09:31:20;;;;;;;1.10;0.90;;;18.40;58.00;;;;;;5058239;28;20295;-86
2021/05/14 09:33:55;;;;;;;1.92;1.00;;;18.30;60.60;;;;;;5057438;28;20177;-85
2021/05/14 09:36:23;;;;;;;1.50;0.95;;;18.30;58.50;;;;;;5074898;28;20191;-85
2021/05/14 09:38:58;;;;;;;2.75;0.98;;;18.20;58.80;;;;;;5056158;28;20192;-85
2021/05/14 09:41:37;;;;;;;1.75;0.93;;;18.10;58.00;;;;;;5055765;28;20187;-85
2021/05/14 09:44:09;;;;;;;0.80;0.70;;;18.10;58.30;;;;;;5057176;28;20678;-85
2021/05/14 09:46:42;;;;;;;2.92;0.70;;;17.90;59.10;;;;;;5056286;28;20268;-86
2021/05/14 09:49:17;;;;;;;2.95;1.08;;;17.60;61.90;;;;;;5056090;28;20667;-85
2021/05/14 09:51:59;;;;;;;2.83;0.90;;;17.50;64.20;;;;;;5055815;28;20219;-85
2021/05/14 09:54:33;;;;;;;0.95;0.70;;;17.30;64.40;;;;;;5056422;28;20179;-85
2021/05/14 09:57:31;;;;;;;1.85;0.90;;;17.10;64.80;;;;;;5062543;28;20207;-86
2021/05/14 09:59:59;;;;;;;2.35;1.20;;;16.90;65.90;;;;;;5059861;28;20560;-84
2021/05/14 10:02:34;;;;;;;1.35;1.00;;;16.90;70.10;;;;;;5058121;28;20168;-86
2021/05/14 10:05:03;;;;;;;1.50;0.80;;;16.90;70.50;;;;;;5056024;28;20183;-85
2021/05/14 10:07:30;;;;;;;4.18;1.25;;;16.90;65.90;;;;;;5055504;28;20178;-85
2021/05/14 10:10:01;;;;;;;3.03;1.30;;;16.90;65.10;;;;;;5057048;28;20744;-84
2021/05/14 10:12:28;;;;;;;1.60;1.02;;;17.00;66.40;;;;;;5057108;28;20195;-85
2021/05/14 10:14:57;;;;;;;1.80;1.00;;;17.00;63.30;;;;;;5059142;28;20236;-85
2021/05/14 10:17:25;;;;;;;1.85;0.90;;;17.00;64.50;;;;;;5075495;28;20264;-86
2021/05/14 10:19:52;;;;;;;8.40;1.40;;;17.10;67.40;;;;;;5075417;28;20241;-87
2021/05/14 10:22:19;;;;;;;2.45;0.93;;;17.10;64.50;;;;;;5079513;28;20169;-85
2021/05/14 10:24:57;;;;;;;2.70;0.93;;;17.10;64.20;;;;;;5077852;28;20175;-86
2021/05/14 10:27:24;;;;;;;2.33;0.90;;;17.20;65.90;;;;;;5079522;28;20161;-86
2021/05/14 10:29:53;;;;;;;0.75;0.68;;;17.30;65.50;;;;;;5073866;28;20255;-86
2021/05/14 10:32:47;;;;;;;2.28;1.00;;;17.30;62.60;;;;;;5077160;28;20196;-87
2021/05/14 10:35:17;;;;;;;1.70;0.60;;;17.30;62.40;;;;;;5077459;28;20157;-87
2021/05/14 10:37:52;;;;;;;0.80;0.60;;;17.50;62.30;;;;;;5078500;28;20197;-86
2021/05/14 10:40:31;;;;;;;1.55;1.00;;;17.50;62.10;;;;;;5078970;28;20188;-87
2021/05/14 10:43:08;;;;;;;2.30;1.20;;;17.50;61.40;;;;;;5077696;28;20707;-87
2021/05/14 10:46:02;;;;;;;3.40;1.20;;;17.40;63.80;;;;;;5069924;28;20195;-87
2021/05/14 10:48:28;;;;;;;1.50;0.80;;;17.30;63.50;;;;;;5065472;28;20234;-88
2021/05/14 10:50:59;;;;;;;1.27;0.82;;;17.20;65.60;;;;;;5063030;28;20192;-86
2021/05/14 10:53:28;;;;;;;2.42;0.90;;;17.10;66.20;;;;;;5059513;28;20172;-86
2021/05/14 10:55:57;;;;;;;1.80;1.20;;;16.90;69.90;;;;;;5059628;28;20237;-86
2021/05/14 10:58:38;;;;;;;4.70;1.00;;;16.80;69.90;;;;;;5059065;28;20169;-86
2021/05/14 11:01:07;;;;;;;1.38;1.20;;;16.70;68.40;;;;;;5059470;28;20541;-86
2021/05/14 11:03:34;;;;;;;3.20;1.50;;;16.70;72.40;;;;;;5062467;28;20183;-87
2021/05/14 11:06:11;;;;;;;3.55;1.20;;;16.60;73.10;;;;;;5076285;28;20168;-86
2021/05/14 11:08:37;;;;;;;1.02;0.70;;;16.50;77.60;;;;;;5073948;28;20225;-87
2021/05/14 11:11:08;;;;;;;0.90;0.87;;;16.60;78.90;;;;;;5072466;28;20200;-88
2021/05/14 11:13:55;;;;;;;2.55;1.10;;;16.60;76.70;;;;;;5077351;28;20762;-87
2021/05/14 11:16:38;;;;;;;2.42;0.80;;;16.60;76.70;;;;;;5079314;28;20204;-87
2021/05/14 11:19:14;;;;;;;6.10;1.08;;;17.00;73.40;;;;;;5078549;28;20165;-87
2021/05/14 11:22:12;;;;;;;1.55;0.88;;;17.30;73.00;;;;;;5078464;28;20251;-88
2021/05/14 11:24:47;;;;;;;2.33;1.30;;;17.50;71.40;;;;;;5079445;28;20160;-88
2021/05/14 11:27:21;;;;;;;2.25;1.05;;;18.00;70.30;;;;;;5079732;28;20190;-87
2021/05/14 11:29:48;;;;;;;2.00;0.90;;;18.30;65.10;;;;;;5079877;28;20250;-86
2021/05/14 11:32:23;;;;;;;0.93;0.73;;;18.40;67.00;;;;;;5079614;28;20226;-86
2021/05/14 11:35:01;;;;;;;1.13;0.80;;;18.80;67.40;;;;;;5079260;28;20180;-86
2021/05/14 11:37:54;;;;;;;0.82;0.60;;;19.40;61.70;;;;;;5071229;28;20672;-86
2021/05/14 11:40:40;;;;;;;2.05;1.38;;;19.60;59.70;;;;;;5066812;28;20189;-86
2021/05/14 11:43:12;;;;;;;2.10;0.80;;;19.70;59.10;;;;;;5062548;28;20165;-87
2021/05/14 11:45:40;;;;;;;1.35;0.70;;;19.70;57.20;;;;;;5065833;28;20161;-87
2021/05/14 11:48:22;;;;;;;5.10;1.10;;;19.60;57.60;;;;;;5067920;28;20188;-87
2021/05/14 11:50:51;;;;;;;2.83;0.93;;;19.40;58.50;;;;;;5073159;28;20192;-88
2021/05/14 11:53:18;;;;;;;1.38;0.98;;;19.40;59.70;;;;;;5077729;28;20165;-86
2021/05/14 11:55:46;;;;;;;6.57;0.80;;;19.50;61.00;;;;;;5078779;28;20200;-88
2021/05/14 11:58:12;;;;;;;4.65;1.10;;;19.90;61.90;;;;;;5078850;28;20257;-87
2021/05/14 12:00:44;;;;;;;2.55;0.70;;;20.30;55.50;;;;;;5076106;28;20718;-87
2021/05/14 12:03:16;;;;;;;2.28;0.70;;;20.70;53.80;;;;;;5079558;28;20173;-86
2021/05/14 12:05:45;;;;;;;1.27;1.13;;;21.10;57.40;;;;;;5077668;28;20180;-87
2021/05/14 12:08:15;;;;;;;2.25;0.73;;;21.30;52.40;;;;;;5077603;28;20203;-87
2021/05/14 12:10:57;;;;;;;1.08;0.75;;;21.40;51.10;;;;;;5076961;28;20187;-89
2021/05/14 12:13:42;;;;;;;1.17;0.80;;;21.60;52.10;;;;;;5074652;28;20180;-88
2021/05/14 12:16:13;;;;;;;1.60;0.70;;;21.50;50.70;;;;;;5070232;28;20184;-86
2021/05/14 12:18:47;;;;;;;4.90;0.77;;;21.70;49.10;;;;;;5077927;28;20235;-88
2021/05/14 12:21:28;;;;;;;1.38;0.60;;;21.80;50.40;;;;;;5077401;28;20283;-88
2021/05/14 12:23:58;;;;;;;2.10;1.20;;;21.90;49.00;;;;;;5077417;28;20168;-88
2021/05/14 12:26:29;;;;;;;2.35;0.80;;;22.10;48.40;;;;;;5075321;28;20164;-88
2021/05/14 12:28:54;;;;;;;5.38;1.63;;;22.30;50.10;;;;;;5066664;28;20176;-88
2021/05/14 12:31:23;;;;;;;2.57;0.70;;;22.40;47.00;;;;;;5063128;28;20760;-88
2021/05/14 12:33:58;;;;;;;1.27;0.75;;;22.40;47.10;;;;;;5064246;28;20153;-87
2021/05/14 12:36:32;;;;;;;2.72;1.10;;;22.50;44.00;;;;;;5063333;28;20195;-88
2021/05/14 12:39:16;;;;;;;1.45;0.88;;;22.50;46.30;;;;;;5091361;28;20214;-85
2021/05/14 12:41:50;;;;;;;0.90;0.73;;;22.80;44.50;;;;;;5078909;28;20188;-88
2021/05/14 12:44:18;;;;;;;1.20;0.70;;;22.70;45.20;;;;;;5078427;28;20260;-88
2021/05/14 12:47:16;;;;;;;1.00;0.63;;;22.80;45.40;;;;;;5077551;28;20198;-86
2021/05/14 12:49:56;;;;;;;1.00;0.65;;;22.60;45.00;;;;;;5094792;28;20655;-87
2021/05/14 12:52:36;;;;;;;1.20;0.80;;;22.80;45.20;;;;;;5076900;28;20169;-88
2021/05/14 12:55:04;;;;;;;3.70;0.90;;;22.90;44.50;;;;;;5077075;28;20169;-87
2021/05/14 12:57:42;;;;;;;4.88;0.90;;;22.80;42.70;;;;;;5076472;28;20208;-85
2021/05/14 13:00:19;;;;;;;3.58;1.30;;;22.20;43.60;;;;;;5058264;28;20199;-86